EGGDEPKK

Guest
Details From EGGD - Bristol Lulsgate
To EPKK - Balice
Flight Number -
Tags Generated
Created
Modified
Stats Distance 858 nm / 1,589 km
Max Altitude 0 ft / 0 m
Waypoints 5
Social Downloads 1
Likes 0
Share VATSIM

Download

Looking for another format? Having issues loading an existing format? Contact us
Advertisement - Login to hide

Notes

Generated

Route

EGGD WDT ABU R1855 EPKK

ID Type Via Altitude Latitude Longitude Leg Dist Tot Dist Heading (true) Name
O EGGD APT - 0 ft / 0 m 51.38211˚ -2.73350˚ - 0 nm - -
WDT VOR - 0 ft / 0 m 51.44750˚ 4.34389˚ 265 nm 265 nm 86° / 92° Woensdrecht VORTAC
ABU NDB - 0 ft / 0 m 50.99377˚ 12.52104˚ 308 nm 573 nm 92° / 98° ALTENBURG NDB
R1855 FIX - 0 ft / 0 m 50.07979˚ 19.79965˚ 283 nm 856 nm 98° / 104° -
O EPKK APT - 0 ft / 0 m 50.07540˚ 19.76809˚ 1 nm 857 nm 258° / 258° -

Altitude Profile

Advertisement - Login to hide

Weather


0- 5 10 15 20 25 30 35+ Temperature / ° C

Clouds and Precipitation
Forecast for 2018-05-22 18:00 UTC. Updated 5 hours ago

Ground ~20,000 ft ~40,000 ft Winds

EGGD

Details ICAO EGGD (BRS)
Name Bristol International
Region United Kingdom
Timezone Europe/London (UTC+1.0)
Stats Elevation 622 ft / 190 m (AMSL)
Location 51.382658° -2.718918°
Runways 1
Magnetic Variation 1.285° W

METAR

EGGD 222120Z AUTO 05008KT 9999 NCD 16/09 Q1021

Decode

TAF

TAF AMD EGGD 221956Z 2219/2318 03009KT 9999 FEW040 TEMPO 2219/2309 5000 HZ PROB30 2303/2309 BKN006

Decode

Departure Runways

ID Width Length Bearing (true) Bearing (mag) Surface Threshold Offset Overrun Length
09 148 ft / 45 m 6,655 ft / 2,029 m 86.42° 87.70° Asphalt 0 ft / 0 m 0 ft / 0 m
27 148 ft / 45 m 6,655 ft / 2,029 m 266.44° 267.72° Asphalt 499 ft / 152 m 0 ft / 0 m

EPKK

Details ICAO EPKK (KRK)
Name BALICE
Region Poland
Timezone Europe/Warsaw (UTC+2.0)
Stats Elevation 791 ft / 241 m (AMSL)
Location 50.077821° 19.785503°
Runways 1
Magnetic Variation 5.255° E

METAR

EPKK 222130Z VRB02KT CAVOK 15/12 Q1017

Decode

TAF

TAF EPKK 222030Z 2221/2321 VRB02KT CAVOK PROB30 TEMPO 2300/2306 4000 SHRA BKN040CB BECMG 2310/2313 08010KT TEMPO 2310/2321 VRB20G30KT 4000 TSRA BKN040CB

Decode

Destination Runways

ID Width Length Bearing (true) Bearing (mag) Surface Threshold Offset Overrun Length
07 197 ft / 60 m 8,343 ft / 2,543 m 77.75° 72.49° Concrete 0 ft / 0 m 0 ft / 0 m
25 197 ft / 60 m 8,343 ft / 2,543 m 257.77° 252.51° Concrete 784 ft / 239 m 0 ft / 0 m

Approach Navaids

Runway Type Ident Frequency Range Bearing (true) Bearing (mag) Slope Elevation
25 Localiser KRW 110.30 MHz 18 nm / 33 km 257.73° 252.48° - 791 ft / 241 m (AMSL)
25 Glidescope KRW 110.30 MHz 10 nm / 19 km 257.76° 252.50° 3.00° 791 ft / 241 m (AMSL)
25 DME KRW 110.30 MHz 18 nm / 33 km - - - 827 ft / 252 m (AMSL)

Popular Alternatives